Faubush, Kentucky
Current Conditions -  °F | °C
As of 7:15 AM on Thursday 29 Jan 2015 (Local Time) from KSME Reporting Station
Overcast Overcast  
Wind Chill: 37°   Ceiling: 11000
Heat Index: 43°   Visibility: 10mi
Dew Point: 21°   Wind: 9mph
Humidity: 42%   Direction: 210°SSW
Pressure: 30.09"   Gusts: 17mph
Location:  37.0701°N, 84.793°W
Report Text: KSME 291215Z AUTO 21008G15KT 10SM OVC110 06/M06 A3009 RMK AO2
Loading
Personal Weather Stations






























Interactive Weather Map New forecast layout! Learn more

10-Day Weather Forecast

Advertisements
Track Severe Weather on mobile